< < Back
Terminal Aerodrome Forecast


Current Version              Previous Versions:   1  2  3  4  5  6  7  8  9  

Terminal Aerodrome Forecast

011
FTUS42 KCHS 032331
TAFSAV
TAF
KSAV 032331Z 0400/0424 12005KT P6SM VCSH SCT030 BKN080
     FM040300 VRB03KT P6SM SCT030 SCT060
     FM041800 16008KT P6SM SCT030 SCT060=

Latest METAR

917
SAUS80 KWBC 040900
MTRSAV
METAR KSAV 040853Z AUTO 25006KT 1SM R10/4500VP6000FT BR VV002 24/23
A2991 RMK AO2 SLP126 T02390233 52003 TSNO


USA.gov is the U.S. government's official web portal to all federal, state and local government web resources and services.